createdAt,value
2019-02-20T00:00:31.548Z,7.30
2019-02-20T00:03:01.049Z,9.40
2019-02-20T00:05:30.163Z,9.80
2019-02-20T00:07:59.298Z,9.37
2019-02-20T00:10:28.518Z,8.77
2019-02-20T00:12:58.567Z,9.53
2019-02-20T00:15:29.763Z,10.60
2019-02-20T00:17:58.866Z,10.00
2019-02-20T00:20:27.965Z,10.20
2019-02-20T00:22:57.444Z,9.97
2019-02-20T00:25:26.706Z,10.50
2019-02-20T00:27:56.340Z,7.90
2019-02-20T00:30:25.548Z,8.73
2019-02-20T00:32:54.624Z,8.13
2019-02-20T00:35:23.983Z,8.80
2019-02-20T00:37:54.545Z,8.57
2019-02-20T00:40:24.445Z,10.40
2019-02-20T00:42:53.498Z,10.13
2019-02-20T00:45:44.473Z,10.70
2019-02-20T00:48:32.629Z,10.60
2019-02-20T00:51:39.250Z,10.10
2019-02-20T00:54:09.350Z,10.33
2019-02-20T00:56:38.633Z,10.33
2019-02-20T00:59:07.762Z,10.20
2019-02-20T01:01:38.200Z,10.93
2019-02-20T01:04:07.484Z,11.47
2019-02-20T01:06:38.697Z,11.57
2019-02-20T01:09:08.302Z,11.40
2019-02-20T01:11:37.431Z,10.93
2019-02-20T01:14:06.668Z,10.77
2019-02-20T01:16:36.046Z,10.67
2019-02-20T01:19:05.158Z,10.23
2019-02-20T01:21:34.298Z,11.47
2019-02-20T01:24:03.492Z,10.80
2019-02-20T01:26:32.825Z,10.73
2019-02-20T01:29:04.318Z,10.97
2019-02-20T01:31:35.734Z,11.53
2019-02-20T01:34:05.381Z,11.47
2019-02-20T01:36:34.739Z,11.50
2019-02-20T01:39:06.125Z,12.40
2019-02-20T01:41:35.263Z,11.07
2019-02-20T01:44:04.356Z,11.17
2019-02-20T01:46:33.659Z,12.43
2019-02-20T01:49:02.801Z,12.53
2019-02-20T01:51:34.222Z,12.97
2019-02-20T01:54:03.431Z,10.43
2019-02-20T01:56:32.654Z,10.57
2019-02-20T01:59:01.770Z,10.07
2019-02-20T02:01:30.858Z,10.57
2019-02-20T02:03:59.990Z,12.27
2019-02-20T02:06:29.088Z,14.17
2019-02-20T02:08:59.654Z,13.70
2019-02-20T02:11:29.014Z,12.40
2019-02-20T02:13:58.147Z,13.33
2019-02-20T02:16:27.294Z,13.17
2019-02-20T02:18:56.276Z,13.00
2019-02-20T02:21:25.299Z,13.30
2019-02-20T02:23:54.398Z,13.20
2019-02-20T02:26:24.695Z,10.60
2019-02-20T02:28:54.163Z,10.43
2019-02-20T02:31:24.662Z,10.47
2019-02-20T02:33:53.811Z,12.53
2019-02-20T02:36:22.983Z,14.03
2019-02-20T02:38:53.558Z,14.73
2019-02-20T02:41:22.793Z,13.20
2019-02-20T02:43:51.901Z,15.00
2019-02-20T02:46:21.497Z,15.40
2019-02-20T02:48:50.651Z,14.27
2019-02-20T02:51:19.751Z,14.27
2019-02-20T02:53:48.919Z,14.70
2019-02-20T02:56:17.992Z,15.27
2019-02-20T02:58:47.119Z,14.03
2019-02-20T03:01:16.141Z,11.23
2019-02-20T03:03:46.542Z,12.83
2019-02-20T03:06:15.667Z,10.70
2019-02-20T03:08:44.785Z,10.80
2019-02-20T03:11:13.901Z,14.30
2019-02-20T03:13:43.009Z,14.33
2019-02-20T03:16:12.075Z,14.00
2019-02-20T03:18:41.500Z,14.43
2019-02-20T03:21:10.830Z,14.13
2019-02-20T03:23:40.560Z,14.50
2019-02-20T03:26:09.863Z,12.37
2019-02-20T03:28:40.218Z,12.93
2019-02-20T03:31:09.630Z,12.13
2019-02-20T03:33:38.604Z,12.43
2019-02-20T03:36:07.668Z,12.00
2019-02-20T03:38:37.960Z,11.70
2019-02-20T03:41:07.437Z,12.63
2019-02-20T03:43:38.174Z,9.57
2019-02-20T03:46:09.358Z,8.50
2019-02-20T03:48:38.465Z,8.70
2019-02-20T03:51:09.326Z,8.17
2019-02-20T03:53:38.479Z,7.37
2019-02-20T03:56:07.639Z,7.80
2019-02-20T03:58:36.779Z,9.97
2019-02-20T04:01:06.101Z,9.73
2019-02-20T04:03:35.323Z,9.30
2019-02-20T04:06:04.427Z,9.53
2019-02-20T04:08:33.553Z,9.77
2019-02-20T04:11:02.657Z,9.80
2019-02-20T04:13:31.813Z,10.43
2019-02-20T04:16:00.950Z,11.10
2019-02-20T04:18:32.247Z,9.80
2019-02-20T04:21:01.370Z,10.50
2019-02-20T04:23:32.573Z,10.07
2019-02-20T04:26:01.910Z,10.60
2019-02-20T04:28:31.010Z,10.87
2019-02-20T04:31:01.351Z,9.47
2019-02-20T04:33:30.791Z,9.00
2019-02-20T04:35:59.991Z,10.20
2019-02-20T04:38:29.536Z,9.60
2019-02-20T04:40:58.638Z,8.50
2019-02-20T04:43:27.796Z,8.90
2019-02-20T04:45:56.938Z,8.70
2019-02-20T04:48:25.937Z,9.93
2019-02-20T04:50:54.995Z,9.47
2019-02-20T04:53:24.477Z,9.17
2019-02-20T04:55:53.495Z,8.90
2019-02-20T04:58:23.321Z,8.13
2019-02-20T05:00:52.490Z,8.00
2019-02-20T05:03:29.376Z,8.03
2019-02-20T05:05:58.572Z,8.33
2019-02-20T05:08:27.661Z,8.37
2019-02-20T05:10:56.739Z,7.67
2019-02-20T05:13:27.488Z,8.37
2019-02-20T05:15:56.691Z,7.37
2019-02-20T05:18:25.819Z,8.13
2019-02-20T05:20:54.976Z,8.07
2019-02-20T05:23:23.993Z,7.33
2019-02-20T05:25:53.136Z,6.60
2019-02-20T05:28:22.345Z,6.63
2019-02-20T05:30:51.543Z,6.63
2019-02-20T05:33:21.023Z,6.80
2019-02-20T05:35:50.903Z,8.83
2019-02-20T05:38:30.019Z,9.13
2019-02-20T05:41:00.261Z,8.30
2019-02-20T05:43:29.541Z,8.93
2019-02-20T05:46:00.319Z,8.87
2019-02-20T05:48:29.743Z,9.80
2019-02-20T05:51:00.053Z,9.43
2019-02-20T05:53:29.163Z,9.50
2019-02-20T05:55:58.225Z,9.40
2019-02-20T05:58:27.338Z,8.20
2019-02-20T06:00:56.490Z,7.77
2019-02-20T06:03:27.129Z,7.73
2019-02-20T06:05:56.697Z,7.30
2019-02-20T06:08:25.706Z,9.37
2019-02-20T06:10:54.913Z,7.83
2019-02-20T06:13:24.002Z,10.57
2019-02-20T06:15:53.119Z,10.20
2019-02-20T06:18:22.246Z,11.03
2019-02-20T06:20:51.441Z,11.13
2019-02-20T06:23:21.504Z,10.87
2019-02-20T06:25:50.630Z,11.23
2019-02-20T06:28:19.776Z,11.80
2019-02-20T06:30:49.235Z,11.87
2019-02-20T06:33:18.334Z,11.10
2019-02-20T06:35:47.527Z,12.03
2019-02-20T06:38:16.743Z,12.10
2019-02-20T06:40:45.912Z,9.17
2019-02-20T06:43:16.257Z,10.17
2019-02-20T06:45:45.532Z,9.90
2019-02-20T06:48:16.857Z,9.80
2019-02-20T06:50:46.083Z,9.90
2019-02-20T06:53:16.486Z,9.43
2019-02-20T06:55:45.979Z,11.03
2019-02-20T06:58:15.479Z,13.00
2019-02-20T07:00:44.565Z,13.00
2019-02-20T07:03:24.405Z,13.67
2019-02-20T07:06:11.222Z,12.40
2019-02-20T07:09:29.887Z,13.83
2019-02-20T07:12:20.407Z,12.30
2019-02-20T07:15:33.657Z,13.57
2019-02-20T07:18:24.866Z,14.20
2019-02-20T07:21:33.948Z,13.00
2019-02-20T07:24:19.875Z,13.80
2019-02-20T07:27:07.448Z,11.50
2019-02-20T07:29:44.915Z,11.20
2019-02-20T07:32:17.968Z,11.87
2019-02-20T07:34:47.134Z,11.30
2019-02-20T07:37:16.281Z,11.53
2019-02-20T07:39:45.522Z,15.10
2019-02-20T07:42:14.724Z,14.50
2019-02-20T07:44:45.121Z,14.37
2019-02-20T07:47:14.274Z,14.87
2019-02-20T07:49:43.447Z,15.50
2019-02-20T07:52:12.547Z,15.33
2019-02-20T07:54:41.773Z,16.10
2019-02-20T07:57:10.919Z,15.57
2019-02-20T07:59:40.048Z,15.23
2019-02-20T08:02:09.321Z,15.30
2019-02-20T08:04:38.475Z,13.97
2019-02-20T08:07:08.805Z,15.67
2019-02-20T08:09:37.933Z,15.07
2019-02-20T08:12:08.769Z,14.03
2019-02-20T08:14:37.859Z,14.70
2019-02-20T08:17:06.978Z,14.33
2019-02-20T08:19:36.074Z,14.80
2019-02-20T08:22:08.290Z,14.27
2019-02-20T08:24:37.454Z,13.33
2019-02-20T08:27:06.563Z,14.53
2019-02-20T08:29:35.942Z,13.90
2019-02-20T08:32:05.106Z,14.50
2019-02-20T08:34:34.310Z,14.87
2019-02-20T08:37:03.480Z,13.37
2019-02-20T08:39:32.628Z,14.30
2019-02-20T08:42:01.726Z,14.53
2019-02-20T08:44:30.968Z,15.10
2019-02-20T08:47:00.087Z,14.77
2019-02-20T08:49:29.158Z,14.40
2019-02-20T08:51:58.278Z,13.80
2019-02-20T08:54:27.502Z,15.40
2019-02-20T08:56:56.623Z,14.17
2019-02-20T08:59:25.741Z,15.40
2019-02-20T09:01:55.003Z,15.40
2019-02-20T09:04:24.112Z,13.77
2019-02-20T09:06:53.548Z,14.47
2019-02-20T09:09:22.681Z,14.57
2019-02-20T09:11:52.349Z,14.40
2019-02-20T09:14:21.537Z,13.87
2019-02-20T09:16:50.723Z,14.63
2019-02-20T09:19:19.770Z,12.60
2019-02-20T09:21:48.886Z,12.47
2019-02-20T09:24:18.311Z,12.47
2019-02-20T09:26:50.227Z,12.93
2019-02-20T09:29:19.374Z,11.30
2019-02-20T09:31:48.533Z,13.07
2019-02-20T09:34:18.184Z,12.47
2019-02-20T09:36:47.811Z,13.60
2019-02-20T09:39:45.145Z,14.07
2019-02-20T09:42:17.464Z,14.27
2019-02-20T09:44:47.956Z,13.13
2019-02-20T09:47:17.826Z,11.17
2019-02-20T09:49:47.267Z,12.20
2019-02-20T09:52:16.682Z,12.57
2019-02-20T09:54:45.952Z,11.30
2019-02-20T09:57:17.598Z,11.17
2019-02-20T09:59:46.791Z,11.90
2019-02-20T10:02:15.910Z,13.60
2019-02-20T10:04:45.153Z,12.83
2019-02-20T10:07:14.459Z,10.93
2019-02-20T10:09:43.560Z,11.03
2019-02-20T10:12:13.773Z,11.10
2019-02-20T10:14:43.216Z,10.30
2019-02-20T10:17:12.336Z,10.03
2019-02-20T10:19:41.469Z,11.73
2019-02-20T10:22:10.713Z,11.13
2019-02-20T10:24:39.822Z,11.60
2019-02-20T10:27:09.023Z,12.10
2019-02-20T10:29:38.131Z,10.50
2019-02-20T10:32:07.243Z,11.10
2019-02-20T10:34:37.475Z,9.60
2019-02-20T10:37:06.981Z,11.17
2019-02-20T10:39:36.132Z,10.73
2019-02-20T10:42:05.381Z,11.97
2019-02-20T10:44:34.490Z,12.03
2019-02-20T10:47:04.662Z,13.30
2019-02-20T10:49:36.128Z,12.30
2019-02-20T10:52:05.288Z,10.73
2019-02-20T10:54:35.782Z,10.50
2019-02-20T10:57:04.994Z,10.60
2019-02-20T10:59:34.319Z,9.43
2019-02-20T11:02:03.743Z,11.30
2019-02-20T11:04:32.812Z,10.83
2019-02-20T11:07:01.932Z,11.40
2019-02-20T11:09:31.921Z,11.87
2019-02-20T11:12:01.075Z,10.57
2019-02-20T11:14:30.210Z,10.17
2019-02-20T11:16:59.635Z,12.20
2019-02-20T11:19:28.729Z,11.17
2019-02-20T11:21:57.964Z,11.10
2019-02-20T11:24:27.131Z,9.90
2019-02-20T11:26:56.233Z,10.83
2019-02-20T11:29:25.376Z,10.50
2019-02-20T11:31:56.576Z,11.40
2019-02-20T11:34:26.009Z,11.67
2019-02-20T11:36:55.142Z,10.30
2019-02-20T11:39:24.230Z,10.63
2019-02-20T11:41:55.657Z,9.63
2019-02-20T11:44:25.979Z,11.17
2019-02-20T11:46:56.826Z,11.73
2019-02-20T11:49:27.667Z,11.23
2019-02-20T11:51:56.745Z,11.50
2019-02-20T11:54:25.890Z,11.37
2019-02-20T11:56:55.328Z,10.80
2019-02-20T11:59:24.443Z,9.53
2019-02-20T12:01:55.832Z,10.50
2019-02-20T12:04:25.238Z,10.50
2019-02-20T12:06:54.630Z,11.57
2019-02-20T12:09:23.771Z,11.53
2019-02-20T12:11:54.077Z,10.17
2019-02-20T12:14:24.484Z,10.60
2019-02-20T12:16:54.168Z,9.90
2019-02-20T12:19:23.667Z,10.27
2019-02-20T12:21:52.820Z,9.17
2019-02-20T12:24:22.014Z,10.50
2019-02-20T12:26:55.810Z,10.30
2019-02-20T12:29:27.274Z,9.13
2019-02-20T12:31:58.128Z,10.03
2019-02-20T12:34:27.294Z,10.03
2019-02-20T12:36:56.878Z,10.37
2019-02-20T12:39:27.674Z,9.20
2019-02-20T12:41:57.003Z,9.50
2019-02-20T12:44:27.236Z,9.40
2019-02-20T12:46:59.864Z,9.67
2019-02-20T12:49:30.566Z,8.43
2019-02-20T12:52:00.142Z,7.77
2019-02-20T12:54:29.523Z,8.43
2019-02-20T12:57:00.409Z,7.90
2019-02-20T12:59:29.557Z,7.17
2019-02-20T13:01:58.687Z,7.90
2019-02-20T13:04:28.054Z,7.93
2019-02-20T13:06:59.568Z,8.03
2019-02-20T13:09:28.156Z,7.87
2019-02-20T13:11:57.321Z,8.50
2019-02-20T13:14:26.505Z,7.90
2019-02-20T13:16:55.791Z,7.93
2019-02-20T13:19:24.917Z,7.23
2019-02-20T13:21:56.700Z,6.90
2019-02-20T13:24:25.895Z,6.57
2019-02-20T13:26:55.027Z,7.00
2019-02-20T13:29:24.088Z,6.13
2019-02-20T13:31:53.302Z,6.90
2019-02-20T13:34:22.441Z,6.50
2019-02-20T13:36:51.561Z,6.20
2019-02-20T13:39:23.334Z,4.53
2019-02-20T13:41:53.221Z,5.20
2019-02-20T13:44:22.823Z,4.70
2019-02-20T13:46:52.038Z,3.80
2019-02-20T13:49:21.207Z,3.83
2019-02-20T13:51:50.421Z,4.03
2019-02-20T13:54:20.724Z,4.23
2019-02-20T13:56:51.380Z,4.20
2019-02-20T13:59:20.573Z,3.77
2019-02-20T14:01:49.825Z,3.63
2019-02-20T14:04:21.867Z,4.40
2019-02-20T14:06:51.072Z,4.20
2019-02-20T14:09:20.589Z,3.73
2019-02-20T14:11:51.905Z,4.07
2019-02-20T14:14:21.109Z,4.07
2019-02-20T14:16:50.421Z,3.63
2019-02-20T14:19:19.613Z,3.90
2019-02-20T14:21:49.162Z,3.60
2019-02-20T14:24:18.409Z,4.23
2019-02-20T14:26:47.938Z,3.60
2019-02-20T14:29:17.594Z,3.57
2019-02-20T14:31:53.307Z,3.53
2019-02-20T14:34:22.519Z,3.30
2019-02-20T14:36:58.603Z,3.53
2019-02-20T14:39:31.488Z,3.17
2019-02-20T14:42:11.762Z,3.97
2019-02-20T14:44:41.041Z,3.40
2019-02-20T14:47:10.230Z,3.80
2019-02-20T14:49:39.450Z,3.00
2019-02-20T14:52:08.688Z,3.20
2019-02-20T14:54:37.894Z,3.23
2019-02-20T14:57:07.111Z,3.63
2019-02-20T14:59:36.848Z,3.40
2019-02-20T15:02:06.454Z,3.67
2019-02-20T15:04:35.681Z,2.83
2019-02-20T15:07:05.075Z,3.20
2019-02-20T15:09:34.282Z,3.00
2019-02-20T15:12:03.588Z,3.00
2019-02-20T15:14:34.589Z,4.07
2019-02-20T15:17:04.044Z,3.70
2019-02-20T15:19:33.319Z,3.43
2019-02-20T15:22:02.653Z,3.47
2019-02-20T15:24:31.877Z,3.00
2019-02-20T15:27:01.103Z,3.43
2019-02-20T15:29:30.647Z,3.70
2019-02-20T15:31:59.880Z,4.07
2019-02-20T15:34:29.117Z,3.67
2019-02-20T15:36:58.326Z,3.63
2019-02-20T15:39:27.531Z,4.07
2019-02-20T15:41:56.731Z,3.87
2019-02-20T15:44:26.384Z,3.87
2019-02-20T15:46:55.557Z,5.03
2019-02-20T15:49:24.809Z,4.40
2019-02-20T15:51:54.066Z,4.23
2019-02-20T15:54:23.317Z,3.93
2019-02-20T15:56:52.538Z,3.90
2019-02-20T15:59:21.731Z,4.40
2019-02-20T16:01:51.093Z,4.43
2019-02-20T16:04:20.234Z,4.67
2019-02-20T16:06:49.524Z,4.43
2019-02-20T16:09:18.774Z,4.93
2019-02-20T16:11:53.084Z,5.00
2019-02-20T16:14:22.246Z,6.00
2019-02-20T16:16:51.497Z,5.90
2019-02-20T16:19:20.680Z,5.53
2019-02-20T16:21:49.939Z,5.60
2019-02-20T16:24:19.225Z,5.03
2019-02-20T16:26:48.550Z,5.20
2019-02-20T16:29:17.815Z,4.87
2019-02-20T16:31:47.440Z,5.07
2019-02-20T16:34:16.914Z,5.07
2019-02-20T16:36:46.303Z,4.30
2019-02-20T16:39:15.527Z,4.67
2019-02-20T16:41:44.856Z,4.90
2019-02-20T16:44:14.289Z,5.40
2019-02-20T16:46:43.986Z,4.70
2019-02-20T16:49:13.284Z,4.80
2019-02-20T16:51:42.746Z,5.37
2019-02-20T16:54:12.183Z,5.10
2019-02-20T16:56:41.473Z,5.97
2019-02-20T16:59:10.704Z,7.07
2019-02-20T17:01:39.996Z,6.93
2019-02-20T17:04:09.235Z,7.23
2019-02-20T17:06:38.478Z,7.27
2019-02-20T17:09:08.127Z,6.90
2019-02-20T17:11:37.362Z,6.60
2019-02-20T17:14:06.583Z,6.67
2019-02-20T17:16:35.806Z,7.30
2019-02-20T17:19:04.983Z,6.97
2019-02-20T17:21:34.284Z,7.80
2019-02-20T17:24:04.646Z,7.77
2019-02-20T17:26:33.970Z,8.60
2019-02-20T17:29:05.256Z,10.27
2019-02-20T17:31:34.888Z,10.70
2019-02-20T17:34:04.095Z,10.77
2019-02-20T17:36:33.249Z,11.77
2019-02-20T17:39:02.530Z,11.60
2019-02-20T17:41:31.762Z,13.00
2019-02-20T17:44:01.018Z,13.53
2019-02-20T17:46:30.310Z,14.03
2019-02-20T17:48:59.394Z,14.37
2019-02-20T17:51:29.756Z,15.73
2019-02-20T17:53:58.966Z,14.93
2019-02-20T17:56:30.383Z,15.07
2019-02-20T17:58:59.529Z,14.97
2019-02-20T18:01:29.320Z,14.90
2019-02-20T18:04:08.835Z,15.17
2019-02-20T18:06:38.097Z,15.20
2019-02-20T18:09:07.883Z,15.60
2019-02-20T18:11:37.023Z,15.30
2019-02-20T18:14:06.158Z,14.20
2019-02-20T18:16:35.308Z,12.27
2019-02-20T18:19:04.391Z,12.50
2019-02-20T18:21:33.559Z,11.97
2019-02-20T18:24:02.692Z,11.70
2019-02-20T18:26:31.803Z,11.90
2019-02-20T18:29:02.060Z,13.23
2019-02-20T18:31:31.619Z,15.17
2019-02-20T18:34:01.388Z,15.50
2019-02-20T18:36:32.833Z,16.10
2019-02-20T18:39:02.403Z,15.70
2019-02-20T18:41:31.565Z,15.90
2019-02-20T18:44:01.761Z,16.80
2019-02-20T18:46:30.930Z,16.37
2019-02-20T18:49:01.761Z,14.13
2019-02-20T18:51:30.901Z,13.83
2019-02-20T18:54:00.031Z,12.20
2019-02-20T18:56:31.161Z,12.37
2019-02-20T18:59:01.749Z,13.00
2019-02-20T19:01:30.845Z,11.97
2019-02-20T19:04:01.391Z,12.77
2019-02-20T19:06:30.556Z,16.23
2019-02-20T19:09:17.817Z,15.77
2019-02-20T19:12:13.772Z,16.23
2019-02-20T19:15:11.949Z,15.13
2019-02-20T19:18:00.579Z,12.10
2019-02-20T19:20:57.268Z,14.97
2019-02-20T19:24:19.857Z,14.23
2019-02-20T19:26:56.490Z,13.40
2019-02-20T19:30:21.247Z,13.47
2019-02-20T19:33:27.267Z,13.53
2019-02-20T19:36:29.263Z,14.23
2019-02-20T19:39:27.798Z,14.37
2019-02-20T19:42:32.225Z,14.83
2019-02-20T19:45:27.949Z,13.97
2019-02-20T19:48:29.479Z,13.87
2019-02-20T19:51:25.037Z,14.20
2019-02-20T19:54:36.941Z,14.20
2019-02-20T19:57:58.008Z,14.10
2019-02-20T20:01:02.915Z,13.93
2019-02-20T20:03:58.105Z,11.80
2019-02-20T20:06:53.051Z,12.47
2019-02-20T20:09:50.278Z,12.97
2019-02-20T20:13:03.269Z,11.60
2019-02-20T20:15:47.069Z,12.23
2019-02-20T20:18:44.894Z,14.60
2019-02-20T20:21:38.474Z,14.83
2019-02-20T20:24:43.794Z,13.47
2019-02-20T20:27:44.181Z,14.53
2019-02-20T20:30:39.960Z,13.73
2019-02-20T20:33:38.679Z,14.37
2019-02-20T20:36:55.235Z,13.37
2019-02-20T20:40:05.255Z,14.20
2019-02-20T20:43:16.018Z,13.90
2019-02-20T20:45:56.241Z,13.93
2019-02-20T20:48:57.725Z,14.97
2019-02-20T20:52:03.829Z,15.00
2019-02-20T20:55:00.734Z,15.77
2019-02-20T20:58:05.242Z,16.23
2019-02-20T21:01:21.460Z,16.83
2019-02-20T21:04:26.637Z,14.27
2019-02-20T21:07:26.639Z,13.10
2019-02-20T21:10:23.604Z,13.23
2019-02-20T21:13:23.852Z,12.83
2019-02-20T21:16:18.365Z,15.33
2019-02-20T21:19:23.248Z,18.80
2019-02-20T21:22:15.638Z,18.90
2019-02-20T21:25:08.991Z,20.10
2019-02-20T21:28:18.397Z,21.97
2019-02-20T21:31:04.562Z,22.57
2019-02-20T21:34:19.409Z,23.20
2019-02-20T21:37:19.567Z,23.23
2019-02-20T21:40:45.191Z,23.43
2019-02-20T21:43:51.620Z,24.57
2019-02-20T21:47:07.755Z,24.47
2019-02-20T21:50:01.409Z,24.17
2019-02-20T21:53:20.768Z,26.23
2019-02-20T21:56:14.741Z,26.37
2019-02-20T21:59:05.004Z,27.10
2019-02-20T22:02:39.886Z,26.93
2019-02-20T22:05:47.363Z,26.97
2019-02-20T22:08:56.592Z,28.53
2019-02-20T22:11:53.071Z,29.60
2019-02-20T22:14:58.092Z,29.83
2019-02-20T22:18:19.528Z,29.10
2019-02-20T22:21:22.322Z,29.50
2019-02-20T22:24:06.592Z,29.07
2019-02-20T22:27:23.954Z,29.90
2019-02-20T22:30:49.234Z,30.20
2019-02-20T22:33:41.632Z,30.87
2019-02-20T22:37:06.964Z,31.07
2019-02-20T22:40:01.317Z,30.13
2019-02-20T22:43:04.577Z,29.83
2019-02-20T22:46:02.422Z,30.03
2019-02-20T22:48:56.775Z,30.83
2019-02-20T22:51:35.741Z,29.13
2019-02-20T22:54:55.621Z,29.63
2019-02-20T22:58:12.768Z,29.17
2019-02-20T23:01:15.995Z,28.60
2019-02-20T23:04:41.413Z,28.00
2019-02-20T23:07:28.940Z,27.13
2019-02-20T23:10:24.304Z,26.47
2019-02-20T23:13:33.439Z,28.50
2019-02-20T23:16:02.576Z,27.40
2019-02-20T23:18:31.711Z,28.07
2019-02-20T23:21:00.880Z,28.33
2019-02-20T23:23:29.999Z,28.03
2019-02-20T23:25:59.092Z,28.23
2019-02-20T23:28:28.269Z,28.77
2019-02-20T23:30:57.410Z,27.83
2019-02-20T23:33:26.536Z,28.13
2019-02-20T23:35:55.665Z,27.93
2019-02-20T23:38:24.863Z,26.77
2019-02-20T23:40:54.036Z,27.53
2019-02-20T23:43:23.208Z,27.47
2019-02-20T23:45:52.714Z,28.13
2019-02-20T23:48:23.975Z,28.07
2019-02-20T23:50:53.034Z,28.30
2019-02-20T23:53:22.224Z,28.97
2019-02-20T23:55:51.339Z,28.97
2019-02-20T23:58:20.491Z,28.87
